Time;durP1;ratioP1;P1;durP2;ratioP2;P2;SDS_P1;SDS_P2;PMS_P1;PMS_P2;Temp;Humidity;BMP_temperature;BMP_pressure;BME280_temperature;BME280_humidity;BME280_pressure;Samples;Min_cycle;Max_cycle;Signal;HPM_P1;HPM_P2
2024/02/02 00:00:05;;;;;;;;;;;;;;;21.24;21.75;98178.81;4979874;28;1013;-76
2024/02/02 00:02:37;;;;;;;;;;;;;;;21.35;21.60;98172.09;4948844;28;1213;-76
2024/02/02 00:05:03;;;;;;;;;;;;;;;21.43;21.37;98170.72;4980142;28;1110;-76
2024/02/02 00:07:29;;;;;;;;;;;;;;;21.45;21.39;98163.41;4937776;29;947;-76
2024/02/02 00:09:56;;;;;;;;;;;;;;;21.40;21.34;98169.59;4927254;28;1003;-76
2024/02/02 00:12:22;;;;;;;;;;;;;;;21.58;21.15;98157.81;4976344;28;1290;-76
2024/02/02 00:14:47;;;;;;;;;;;;;;;21.62;20.87;98154.91;4976376;28;1930;-76
2024/02/02 00:17:13;;;;;;;;;;;;;;;21.25;21.45;98157.75;4976408;28;998;-76
2024/02/02 00:19:38;;;;;;;;;;;;;;;21.07;21.50;98157.34;4976103;28;914;-76
2024/02/02 00:22:05;;;;;;;;;;;;;;;21.14;21.54;98148.72;4976346;28;982;-76
2024/02/02 00:24:30;;;;;;;;;;;;;;;21.40;21.01;98157.44;4976092;28;946;-76
2024/02/02 00:26:56;;;;;;;;;;;;;;;21.29;21.37;98146.34;4975860;28;937;-76
2024/02/02 00:29:21;;;;;;;;;;;;;;;21.28;21.29;98139.88;4976285;28;918;-76
2024/02/02 00:31:47;;;;;;;;;;;;;;;21.43;20.90;98150.91;4976092;28;1137;-76
2024/02/02 00:34:12;;;;;;;;;;;;;;;21.35;21.05;98144.63;4976071;28;1976;-77
2024/02/02 00:36:38;;;;;;;;;;;;;;;21.50;20.81;98145.06;4995188;28;1241;-76
2024/02/02 00:39:03;;;;;;;;;;;;;;;21.51;20.75;98147.47;4995129;28;979;-77
2024/02/02 00:41:29;;;;;;;;;;;;;;;21.51;21.01;98152.34;4978924;28;1260;-76
2024/02/02 00:43:54;;;;;;;;;;;;;;;21.47;20.78;98145.97;4978983;28;1191;-77
2024/02/02 00:46:20;;;;;;;;;;;;;;;21.54;20.66;98140.13;4978500;28;1070;-76
2024/02/02 00:48:45;;;;;;;;;;;;;;;21.55;20.69;98133.22;4977209;28;967;-76
2024/02/02 00:51:11;;;;;;;;;;;;;;;21.67;20.53;98132.53;4975716;28;1216;-76
2024/02/02 00:53:36;;;;;;;;;;;;;;;21.58;20.56;98129.50;4991596;28;1911;-76
2024/02/02 00:56:02;;;;;;;;;;;;;;;21.72;20.29;98134.81;4974816;28;1083;-76
2024/02/02 00:58:27;;;;;;;;;;;;;;;21.50;20.67;98122.41;4991508;28;1182;-76
2024/02/02 01:00:53;;;;;;;;;;;;;;;21.14;20.91;98128.09;4975409;28;938;-76
2024/02/02 01:03:18;;;;;;;;;;;;;;;21.04;21.04;98136.41;4991510;28;1165;-76
2024/02/02 01:05:44;;;;;;;;;;;;;;;21.12;21.19;98130.56;4992020;28;1304;-76
2024/02/02 01:08:09;;;;;;;;;;;;;;;21.42;20.56;98127.47;4991562;28;955;-77
2024/02/02 01:10:35;;;;;;;;;;;;;;;21.54;20.61;98128.78;4991649;28;1256;-76
2024/02/02 01:13:01;;;;;;;;;;;;;;;21.68;20.29;98131.28;4990203;28;1922;-76
2024/02/02 01:15:26;;;;;;;;;;;;;;;21.71;20.35;98133.25;4972169;28;944;-76
2024/02/02 01:17:52;;;;;;;;;;;;;;;21.53;20.22;98128.00;4957209;28;1210;-76
2024/02/02 01:20:18;;;;;;;;;;;;;;;21.45;20.76;98142.75;4975453;28;1031;-76
2024/02/02 01:22:43;;;;;;;;;;;;;;;21.51;20.35;98141.81;4975596;28;900;-76
2024/02/02 01:25:13;;;;;;;;;;;;;;;21.51;20.30;98143.84;4958919;28;954;-76
2024/02/02 01:27:39;;;;;;;;;;;;;;;21.44;20.36;98152.50;4959272;28;976;-76
2024/02/02 01:30:05;;;;;;;;;;;;;;;21.48;20.36;98147.56;4959409;28;965;-76
2024/02/02 01:32:31;;;;;;;;;;;;;;;21.45;20.69;98137.91;4917756;29;1097;-76
2024/02/02 01:34:57;;;;;;;;;;;;;;;21.41;20.65;98147.72;4917631;29;1999;-76
2024/02/02 01:37:22;;;;;;;;;;;;;;;21.73;20.30;98147.75;4917574;29;986;-76
2024/02/02 01:39:48;;;;;;;;;;;;;;;21.68;20.29;98141.81;4917882;29;1110;-76
2024/02/02 01:42:13;;;;;;;;;;;;;;;20.97;20.84;98135.75;4917428;29;997;-76
2024/02/02 01:44:39;;;;;;;;;;;;;;;21.21;20.71;98145.72;4917701;29;999;-77
2024/02/02 01:47:04;;;;;;;;;;;;;;;21.27;20.55;98141.13;4917653;29;942;-76
2024/02/02 01:49:30;;;;;;;;;;;;;;;21.36;20.40;98134.91;4950281;28;975;-76
2024/02/02 01:51:56;;;;;;;;;;;;;;;21.45;20.52;98137.91;4975045;28;974;-76
2024/02/02 01:54:21;;;;;;;;;;;;;;;21.41;20.46;98139.25;4974987;28;1906;-76
2024/02/02 01:56:47;;;;;;;;;;;;;;;21.29;20.49;98141.47;4974819;28;1060;-76
2024/02/02 01:59:12;;;;;;;;;;;;;;;21.36;20.41;98139.75;4974694;28;1023;-76
2024/02/02 02:01:38;;;;;;;;;;;;;;;21.44;20.44;98141.16;4958461;28;1285;-76
2024/02/02 02:04:03;;;;;;;;;;;;;;;21.56;20.06;98138.47;4958560;28;952;-76
2024/02/02 02:06:29;;;;;;;;;;;;;;;21.38;20.45;98137.28;4959101;28;996;-76
2024/02/02 02:08:54;;;;;;;;;;;;;;;21.37;20.23;98150.63;4965230;28;972;-76
2024/02/02 02:11:20;;;;;;;;;;;;;;;21.42;20.52;98154.97;5001619;28;889;-76
2024/02/02 02:13:45;;;;;;;;;;;;;;;21.41;20.11;98153.41;5001337;28;1977;-76
2024/02/02 02:16:11;;;;;;;;;;;;;;;21.55;20.30;98153.03;5001298;28;1035;-76
2024/02/02 02:18:37;;;;;;;;;;;;;;;21.54;20.03;98151.44;5017485;28;980;-76
2024/02/02 02:21:21;;;;;;;;;;;;;;;21.55;20.22;98156.69;5001457;28;964;-76
2024/02/02 02:23:47;;;;;;;;;;;;;;;21.60;20.04;98155.34;5001776;28;1000;-76
2024/02/02 02:26:12;;;;;;;;;;;;;;;21.44;20.00;98158.94;5017510;28;1004;-76
2024/02/02 02:28:38;;;;;;;;;;;;;;;21.63;20.17;98162.16;5017479;28;1099;-76
2024/02/02 02:31:04;;;;;;;;;;;;;;;21.69;19.98;98166.06;5017656;28;1071;-76
2024/02/02 02:33:30;;;;;;;;;;;;;;;21.63;19.72;98165.78;5056848;28;1894;-76
2024/02/02 02:35:56;;;;;;;;;;;;;;;21.45;20.25;98168.22;5057358;28;1051;-76
2024/02/02 02:38:21;;;;;;;;;;;;;;;21.45;20.09;98171.88;5056731;28;971;-76
2024/02/02 02:40:47;;;;;;;;;;;;;;;21.30;20.32;98177.06;5057008;28;935;-76
2024/02/02 02:43:12;;;;;;;;;;;;;;;21.49;19.91;98183.09;5057068;28;960;-76
2024/02/02 02:45:38;;;;;;;;;;;;;;;21.40;20.10;98174.41;5040201;28;1241;-76
2024/02/02 02:48:03;;;;;;;;;;;;;;;21.59;20.07;98176.41;5056850;28;929;-77
2024/02/02 02:50:29;;;;;;;;;;;;;;;21.49;20.02;98178.25;5040127;28;1077;-76
2024/02/02 02:52:54;;;;;;;;;;;;;;;21.35;20.13;98177.78;5040136;28;1583;-76
2024/02/02 02:55:20;;;;;;;;;;;;;;;21.56;20.10;98180.94;5056616;28;1906;-76
2024/02/02 02:57:46;;;;;;;;;;;;;;;21.53;19.94;98172.50;5039412;28;1131;-76
2024/02/02 03:00:12;;;;;;;;;;;;;;;21.48;20.05;98171.00;5056432;28;985;-76
2024/02/02 03:02:38;;;;;;;;;;;;;;;21.57;19.99;98170.41;5039850;28;993;-77
2024/02/02 03:05:04;;;;;;;;;;;;;;;21.43;19.98;98173.56;5023382;28;998;-76
2024/02/02 03:07:29;;;;;;;;;;;;;;;21.47;20.29;98162.94;5039968;28;1057;-76
2024/02/02 03:09:55;;;;;;;;;;;;;;;21.68;19.72;98162.44;5019791;28;1280;-77
2024/02/02 03:12:20;;;;;;;;;;;;;;;21.42;20.16;98154.97;5016686;28;1063;-76
2024/02/02 03:14:46;;;;;;;;;;;;;;;21.42;20.26;98169.94;5019509;28;1910;-77
2024/02/02 03:17:12;;;;;;;;;;;;;;;21.56;19.77;98165.97;5003559;28;1090;-77
2024/02/02 03:19:38;;;;;;;;;;;;;;;21.67;20.01;98166.50;5034833;28;979;-76
2024/02/02 03:22:03;;;;;;;;;;;;;;;21.11;20.44;98169.38;5019702;28;1043;-76
2024/02/02 03:24:29;;;;;;;;;;;;;;;21.23;20.39;98167.91;5003120;28;1013;-76
2024/02/02 03:26:55;;;;;;;;;;;;;;;21.24;20.21;98170.31;5003250;28;1351;-76
2024/02/02 03:29:21;;;;;;;;;;;;;;;21.35;20.33;98177.78;5036184;28;1005;-73
2024/02/02 03:31:46;;;;;;;;;;;;;;;21.43;20.23;98179.22;5019577;28;1005;-74
2024/02/02 03:34:12;;;;;;;;;;;;;;;21.65;19.71;98173.84;4999657;28;1910;-73
2024/02/02 03:36:37;;;;;;;;;;;;;;;21.54;19.88;98188.25;4999757;28;1166;-74
2024/02/02 03:39:03;;;;;;;;;;;;;;;21.67;19.97;98180.66;4999715;28;1108;-73
2024/02/02 03:41:29;;;;;;;;;;;;;;;21.70;19.71;98185.44;4999803;28;943;-74
2024/02/02 03:43:56;;;;;;;;;;;;;;;21.43;20.11;98196.19;4999604;28;1000;-73
2024/02/02 03:46:22;;;;;;;;;;;;;;;21.42;20.00;98188.94;5001366;28;1085;-74
2024/02/02 03:48:49;;;;;;;;;;;;;;;21.49;19.97;98188.78;4996326;28;953;-74
2024/02/02 03:51:14;;;;;;;;;;;;;;;21.53;20.06;98195.16;4996116;28;1019;-74
2024/02/02 03:53:40;;;;;;;;;;;;;;;21.62;19.86;98189.69;4996274;28;1902;-73
2024/02/02 03:56:05;;;;;;;;;;;;;;;21.61;19.73;98193.75;4979940;28;1699;-74
2024/02/02 03:58:31;;;;;;;;;;;;;;;21.38;20.14;98183.34;4996115;28;1185;-74
2024/02/02 04:00:56;;;;;;;;;;;;;;;21.24;20.13;98201.44;4996249;28;993;-73
2024/02/02 04:03:22;;;;;;;;;;;;;;;21.57;19.95;98190.22;4996132;28;934;-73
2024/02/02 04:05:47;;;;;;;;;;;;;;;21.57;19.95;98187.38;5026277;28;1547;-74
2024/02/02 04:08:13;;;;;;;;;;;;;;;21.50;19.92;98193.19;5019935;28;1262;-73
2024/02/02 04:10:38;;;;;;;;;;;;;;;21.59;20.12;98201.88;5019553;28;878;-74
2024/02/02 04:13:04;;;;;;;;;;;;;;;21.68;19.69;98202.06;5018679;28;1910;-74
2024/02/02 04:15:30;;;;;;;;;;;;;;;21.54;19.82;98200.38;5019823;28;1075;-74
2024/02/02 04:17:56;;;;;;;;;;;;;;;21.47;20.15;98211.06;5037151;28;1004;-74
2024/02/02 04:20:21;;;;;;;;;;;;;;;21.66;20.08;98198.06;5019638;28;1069;-75
2024/02/02 04:22:50;;;;;;;;;;;;;;;21.51;20.21;98208.97;5018290;28;963;-74
2024/02/02 04:25:15;;;;;;;;;;;;;;;21.43;20.29;98204.69;5035274;28;981;-74
2024/02/02 04:27:41;;;;;;;;;;;;;;;21.45;19.93;98213.53;5001738;28;929;-73
2024/02/02 04:30:07;;;;;;;;;;;;;;;21.19;20.56;98207.63;5018491;28;992;-74
2024/02/02 04:32:32;;;;;;;;;;;;;;;21.41;20.34;98215.66;5034976;28;1048;-73
2024/02/02 04:34:58;;;;;;;;;;;;;;;21.40;20.16;98214.06;5034540;28;1973;-74
2024/02/02 04:37:23;;;;;;;;;;;;;;;21.55;20.12;98218.16;5016158;28;1810;-74
2024/02/02 04:39:49;;;;;;;;;;;;;;;21.59;19.86;98210.38;5033962;28;1350;-74
2024/02/02 04:42:15;;;;;;;;;;;;;;;21.68;19.95;98213.41;5034623;28;1024;-74
2024/02/02 04:44:41;;;;;;;;;;;;;;;21.65;19.75;98202.16;5018428;28;1305;-74
2024/02/02 04:47:06;;;;;;;;;;;;;;;21.20;20.17;98205.59;5034587;28;1024;-74
2024/02/02 04:49:32;;;;;;;;;;;;;;;21.25;20.46;98208.69;5018271;28;1007;-74
2024/02/02 04:51:57;;;;;;;;;;;;;;;21.37;20.29;98214.94;5033950;28;1620;-74
2024/02/02 04:54:23;;;;;;;;;;;;;;;21.52;20.30;98217.00;5032533;28;1894;-74
2024/02/02 04:56:48;;;;;;;;;;;;;;;21.41;20.18;98212.84;5037301;28;1199;-74
2024/02/02 04:59:14;;;;;;;;;;;;;;;21.58;19.95;98214.44;5014280;28;988;-74
2024/02/02 05:01:39;;;;;;;;;;;;;;;21.61;20.06;98219.25;4998062;28;1090;-74
2024/02/02 05:04:05;;;;;;;;;;;;;;;21.60;20.06;98228.97;4981895;28;1014;-74
2024/02/02 05:06:30;;;;;;;;;;;;;;;21.31;20.20;98228.81;5014205;28;1394;-75
2024/02/02 05:08:56;;;;;;;;;;;;;;;21.01;20.71;98230.63;5012889;28;1510;-75
2024/02/02 05:11:21;;;;;;;;;;;;;;;21.04;20.48;98234.63;4998114;28;994;-74
2024/02/02 05:13:47;;;;;;;;;;;;;;;21.43;20.13;98244.31;5013951;28;1983;-74
2024/02/02 05:16:12;;;;;;;;;;;;;;;21.44;20.19;98241.03;4997944;28;1136;-74
2024/02/02 05:18:38;;;;;;;;;;;;;;;21.70;20.11;98238.44;4997838;28;1032;-75
2024/02/02 05:21:03;;;;;;;;;;;;;;;21.75;20.08;98241.56;5014244;28;1139;-74
2024/02/02 05:23:29;;;;;;;;;;;;;;;21.42;20.25;98251.22;4997488;28;1030;-74
2024/02/02 05:25:55;;;;;;;;;;;;;;;21.46;20.10;98266.09;5014191;28;970;-74
2024/02/02 05:28:20;;;;;;;;;;;;;;;21.56;19.95;98267.91;4997707;28;1527;-74
2024/02/02 05:30:46;;;;;;;;;;;;;;;21.47;20.29;98270.53;5024842;28;1503;-74
2024/02/02 05:33:11;;;;;;;;;;;;;;;21.67;19.74;98285.44;5055652;28;1989;-74
2024/02/02 05:35:37;;;;;;;;;;;;;;;21.62;20.19;98285.97;5038454;28;1241;-74
2024/02/02 05:38:02;;;;;;;;;;;;;;;21.72;20.03;98286.97;5021472;28;984;-74
2024/02/02 05:40:28;;;;;;;;;;;;;;;21.41;20.12;98283.59;4997178;28;1316;-74
2024/02/02 05:42:54;;;;;;;;;;;;;;;21.23;20.74;98295.25;5001824;28;915;-73
2024/02/02 05:45:19;;;;;;;;;;;;;;;21.12;20.74;98301.13;4999992;28;1469;-74
2024/02/02 05:47:45;;;;;;;;;;;;;;;21.39;20.16;98291.72;5000859;28;932;-74
2024/02/02 05:50:10;;;;;;;;;;;;;;;21.53;19.95;98308.41;4968467;28;1071;-74
2024/02/02 05:52:36;;;;;;;;;;;;;;;21.20;20.38;98313.13;4968471;28;1182;-74
2024/02/02 05:55:01;;;;;;;;;;;;;;;21.42;20.34;98316.34;4968226;28;1906;-74
2024/02/02 05:57:27;;;;;;;;;;;;;;;21.54;20.21;98321.31;5001212;28;1120;-74
2024/02/02 05:59:52;;;;;;;;;;;;;;;21.55;19.94;98317.25;4968247;28;1303;-74
2024/02/02 06:02:18;;;;;;;;;;;;;;;21.40;20.49;98338.59;4984128;28;1395;-74
2024/02/02 06:04:43;;;;;;;;;;;;;;;21.77;19.76;98340.25;4984516;28;1006;-74
2024/02/02 06:07:09;;;;;;;;;;;;;;;21.53;20.23;98351.66;4984387;28;954;-74
2024/02/02 06:09:35;;;;;;;;;;;;;;;21.00;20.70;98366.84;5000668;28;969;-74
2024/02/02 06:12:00;;;;;;;;;;;;;;;21.02;20.90;98353.84;4998276;28;1034;-74
2024/02/02 06:14:27;;;;;;;;;;;;;;;21.48;20.24;98362.72;5020301;28;1914;-74
2024/02/02 06:16:53;;;;;;;;;;;;;;;21.62;20.14;98356.75;5032046;28;1512;-74
2024/02/02 06:19:18;;;;;;;;;;;;;;;21.56;20.12;98358.50;5024750;28;1140;-74
2024/02/02 06:21:44;;;;;;;;;;;;;;;21.66;19.86;98363.16;5008170;28;1194;-74
2024/02/02 06:24:09;;;;;;;;;;;;;;;21.57;20.02;98371.44;5042269;28;941;-74
2024/02/02 06:26:36;;;;;;;;;;;;;;;21.55;20.08;98368.22;5024335;28;1072;-74
2024/02/02 06:29:03;;;;;;;;;;;;;;;21.50;20.07;98360.22;5042413;28;992;-75
2024/02/02 06:31:28;;;;;;;;;;;;;;;21.59;20.29;98363.28;5006250;28;1665;-74
2024/02/02 06:33:54;;;;;;;;;;;;;;;21.79;20.04;98366.91;5038647;28;1895;-74
2024/02/02 06:36:24;;;;;;;;;;;;;;;21.39;20.38;98356.81;5023499;28;997;-74
2024/02/02 06:38:50;;;;;;;;;;;;;;;21.19;20.49;98363.25;5039940;28;941;-74
2024/02/02 06:41:16;;;;;;;;;;;;;;;21.20;20.69;98369.72;5023554;28;1060;-74
2024/02/02 06:43:41;;;;;;;;;;;;;;;21.30;20.56;98375.19;5023135;28;1007;-74
2024/02/02 06:46:07;;;;;;;;;;;;;;;21.47;20.08;98384.56;5039800;28;1009;-74
2024/02/02 06:48:32;;;;;;;;;;;;;;;21.38;20.61;98386.38;5021481;28;1486;-75
2024/02/02 06:50:58;;;;;;;;;;;;;;;21.61;20.35;98394.81;5021892;28;1503;-75
2024/02/02 06:53:23;;;;;;;;;;;;;;;21.70;19.96;98397.84;5037417;28;1902;-75
2024/02/02 06:55:49;;;;;;;;;;;;;;;21.49;20.55;98399.06;5019778;28;1526;-74
2024/02/02 06:58:27;;;;;;;;;;;;;;;21.18;20.53;98401.25;5020006;28;1114;-74
2024/02/02 07:00:52;;;;;;;;;;;;;;;21.24;20.57;98393.88;5036755;28;1008;-74
2024/02/02 07:03:18;;;;;;;;;;;;;;;21.53;20.44;98394.16;5033319;28;1075;-74
2024/02/02 07:05:43;;;;;;;;;;;;;;;21.19;20.51;98394.38;5036407;28;1103;-74
2024/02/02 07:08:09;;;;;;;;;;;;;;;21.65;20.08;98398.34;5019995;28;1297;-74
2024/02/02 07:10:34;;;;;;;;;;;;;;;21.67;20.30;98404.41;5019324;28;1397;-74
2024/02/02 07:13:01;;;;;;;;;;;;;;;21.50;20.35;98405.53;4996719;28;1061;-74
2024/02/02 07:15:27;;;;;;;;;;;;;;;21.53;20.31;98404.69;5013053;28;1906;-74
2024/02/02 07:17:53;;;;;;;;;;;;;;;21.31;20.52;98416.41;5013002;28;1006;-74
2024/02/02 07:20:33;;;;;;;;;;;;;;;21.22;20.82;98423.84;4996682;28;1100;-74
2024/02/02 07:23:01;;;;;;;;;;;;;;;21.33;20.47;98419.59;4996691;28;996;-74
2024/02/02 07:25:27;;;;;;;;;;;;;;;21.24;20.62;98433.50;5012497;28;1451;-74
2024/02/02 07:28:03;;;;;;;;;;;;;;;21.15;20.90;98435.31;4996050;28;1450;-74
2024/02/02 07:30:43;;;;;;;;;;;;;;;21.45;20.31;98437.19;5012836;28;1028;-74
2024/02/02 07:33:20;;;;;;;;;;;;;;;21.58;20.14;98429.66;4997073;28;1975;-73
2024/02/02 07:35:46;;;;;;;;;;;;;;;21.33;20.53;98430.91;4983409;28;1018;-74
2024/02/02 07:38:18;;;;;;;;;;;;;;;21.37;20.48;98438.56;4999517;28;951;-74
2024/02/02 07:40:58;;;;;;;;;;;;;;;21.35;20.51;98443.84;4996127;28;1434;-74
2024/02/02 07:43:23;;;;;;;;;;;;;;;21.23;20.65;98443.22;5007241;28;1090;-74
2024/02/02 07:45:49;;;;;;;;;;;;;;;21.27;20.60;98443.16;5035986;28;1187;-74
2024/02/02 07:48:14;;;;;;;;;;;;;;;21.47;20.39;98444.03;5035575;28;966;-74
2024/02/02 07:50:40;;;;;;;;;;;;;;;21.41;20.49;98453.44;5035537;28;1319;-74
2024/02/02 07:53:05;;;;;;;;;;;;;;;21.35;20.39;98449.50;5035792;28;1068;-74
2024/02/02 07:55:31;;;;;;;;;;;;;;;21.32;20.71;98463.28;5051210;28;1906;-74
2024/02/02 07:57:57;;;;;;;;;;;;;;;21.47;20.36;98451.72;5034865;28;1355;-74
2024/02/02 08:00:22;;;;;;;;;;;;;;;21.39;20.41;98455.91;4998982;28;1348;-74
2024/02/02 08:02:48;;;;;;;;;;;;;;;21.44;20.55;98441.25;5015266;28;1025;-74
2024/02/02 08:05:13;;;;;;;;;;;;;;;21.30;20.69;98450.81;5014985;28;1218;-74
2024/02/02 08:07:39;;;;;;;;;;;;;;;21.18;20.67;98457.06;4998959;28;1179;-74
2024/02/02 08:10:05;;;;;;;;;;;;;;;21.15;20.72;98453.06;5015185;28;1191;-73
2024/02/02 08:12:30;;;;;;;;;;;;;;;21.36;20.46;98451.13;4995121;28;1373;-75
2024/02/02 08:14:56;;;;;;;;;;;;;;;21.45;20.56;98448.50;4979935;28;1977;-74
2024/02/02 08:17:22;;;;;;;;;;;;;;;21.51;20.46;98458.13;4927201;29;960;-74
2024/02/02 08:19:47;;;;;;;;;;;;;;;21.54;20.29;98451.56;4937828;29;916;-74
2024/02/02 08:22:13;;;;;;;;;;;;;;;21.63;20.48;98465.97;4937550;29;935;-74
2024/02/02 08:24:39;;;;;;;;;;;;;;;21.41;20.60;98461.94;4937505;29;1021;-74
2024/02/02 08:27:04;;;;;;;;;;;;;;;21.59;20.26;98470.88;4920826;29;1313;-74
2024/02/02 08:29:30;;;;;;;;;;;;;;;21.66;20.42;98469.94;4915325;29;942;-74
2024/02/02 08:31:56;;;;;;;;;;;;;;;21.42;20.53;98472.03;4912034;29;1251;-74
2024/02/02 08:34:24;;;;;;;;;;;;;;;21.75;20.01;98482.31;4904856;29;1974;-74
2024/02/02 08:36:50;;;;;;;;;;;;;;;21.59;20.44;98483.00;4937244;29;1547;-74
2024/02/02 08:39:16;;;;;;;;;;;;;;;21.56;20.26;98471.78;4939551;29;1683;-74
2024/02/02 08:41:41;;;;;;;;;;;;;;;21.38;20.65;98474.13;4937629;29;1768;-75
2024/02/02 08:44:18;;;;;;;;;;;;;;;21.49;20.74;98471.88;4952063;29;1366;-74
2024/02/02 08:46:45;;;;;;;;;;;;;;;21.45;20.60;98476.81;4972632;28;1074;-74
2024/02/02 08:49:18;;;;;;;;;;;;;;;21.37;20.51;98481.81;4988696;28;1037;-74
2024/02/02 08:51:45;;;;;;;;;;;;;;;21.37;20.77;98478.19;4991945;28;1243;-74
2024/02/02 08:54:23;;;;;;;;;;;;;;;21.58;20.52;98480.63;4982467;28;1899;-74
2024/02/02 08:57:11;;;;;;;;;;;;;;;21.57;20.48;98471.34;4995327;28;1240;-75
2024/02/02 08:59:42;;;;;;;;;;;;;;;21.54;20.31;98474.22;4920881;29;996;-74
2024/02/02 09:02:09;;;;;;;;;;;;;;;21.51;20.47;98469.44;4937280;29;985;-74
2024/02/02 09:04:35;;;;;;;;;;;;;;;21.45;20.50;98460.66;4937519;29;1024;-74
2024/02/02 09:07:00;;;;;;;;;;;;;;;21.52;20.48;98465.38;4954456;29;1463;-74
2024/02/02 09:09:26;;;;;;;;;;;;;;;21.25;20.84;98471.09;4940360;29;1036;-74
2024/02/02 09:11:51;;;;;;;;;;;;;;;21.11;21.07;98465.69;4954991;28;1814;-74
2024/02/02 09:14:19;;;;;;;;;;;;;;;21.20;21.04;98472.38;4940250;29;1899;-74
2024/02/02 09:16:49;;;;;;;;;;;;;;;21.35;20.78;98472.16;4939214;29;1575;-74
2024/02/02 09:19:21;;;;;;;;;;;;;;;21.68;20.69;98473.16;4923980;29;1007;-74
2024/02/02 09:21:46;;;;;;;;;;;;;;;21.63;20.45;98477.28;4923905;29;1490;-74
2024/02/02 09:24:12;;;;;;;;;;;;;;;21.65;20.37;98480.47;4908403;29;1534;-74
2024/02/02 09:26:38;;;;;;;;;;;;;;;21.34;20.98;98474.19;4883211;29;955;-74
2024/02/02 09:29:04;;;;;;;;;;;;;;;21.44;20.89;98475.22;4883237;29;1700;-75
2024/02/02 09:31:34;;;;;;;;;;;;;;;21.76;20.53;98486.75;4883349;29;1122;-75
2024/02/02 09:34:01;;;;;;;;;;;;;;;21.36;20.68;98479.44;4883411;29;1885;-75
2024/02/02 09:36:26;;;;;;;;;;;;;;;21.04;21.37;98481.56;4930738;28;1423;-75
2024/02/02 09:39:00;;;;;;;;;;;;;;;21.27;21.20;98482.78;4994367;28;991;-74
2024/02/02 09:41:33;;;;;;;;;;;;;;;21.41;20.86;98481.75;4962414;28;1140;-74
2024/02/02 09:44:01;;;;;;;;;;;;;;;21.43;20.67;98484.94;4978233;28;1028;-74
2024/02/02 09:46:29;;;;;;;;;;;;;;;21.54;20.55;98492.00;4994575;28;997;-74
2024/02/02 09:49:07;;;;;;;;;;;;;;;21.55;20.74;98489.97;4978011;28;982;-74
2024/02/02 09:51:44;;;;;;;;;;;;;;;21.63;20.65;98491.44;4993906;28;1433;-74
2024/02/02 09:54:16;;;;;;;;;;;;;;;21.53;20.68;98495.28;4945288;28;1911;-74
2024/02/02 09:56:54;;;;;;;;;;;;;;;21.37;20.94;98498.00;4946083;28;1128;-74
2024/02/02 09:59:27;;;;;;;;;;;;;;;21.29;21.08;98495.25;4997794;28;1064;-74
2024/02/02 10:01:55;;;;;;;;;;;;;;;21.24;21.25;98504.25;4980207;28;1543;-74
2024/02/02 10:04:21;;;;;;;;;;;;;;;20.98;21.36;98505.09;5013867;28;1337;-74
2024/02/02 10:07:05;;;;;;;;;;;;;;;21.23;21.33;98494.16;4997202;28;986;-74
2024/02/02 10:09:42;;;;;;;;;;;;;;;21.38;20.84;98497.56;5013687;28;1012;-74
2024/02/02 10:12:31;;;;;;;;;;;;;;;21.45;20.84;98490.97;5013439;28;962;-74
2024/02/02 10:15:35;;;;;;;;;;;;;;;21.41;20.91;98501.56;4923500;29;1910;-74
2024/02/02 10:18:05;;;;;;;;;;;;;;;21.68;20.66;98496.63;4897125;29;1358;-74
2024/02/02 10:20:35;;;;;;;;;;;;;;;21.60;20.91;98497.97;4882559;29;1175;-74
2024/02/02 10:23:01;;;;;;;;;;;;;;;21.57;20.96;98501.69;4898505;29;1025;-74
2024/02/02 10:25:30;;;;;;;;;;;;;;;21.43;20.84;98491.41;4898236;29;1158;-74
2024/02/02 10:28:14;;;;;;;;;;;;;;;21.17;21.47;98490.22;4921578;29;1004;-74
2024/02/02 10:30:39;;;;;;;;;;;;;;;21.10;21.36;98489.56;4939980;29;951;-74
2024/02/02 10:33:05;;;;;;;;;;;;;;;21.17;21.44;98490.22;4937946;29;1409;-74
2024/02/02 10:35:36;;;;;;;;;;;;;;;21.32;21.33;98485.94;4923745;29;1982;-74
2024/02/02 10:38:13;;;;;;;;;;;;;;;21.39;21.04;98487.84;4923672;29;979;-74
2024/02/02 10:40:39;;;;;;;;;;;;;;;21.53;21.01;98483.94;4923801;29;934;-74
2024/02/02 10:43:07;;;;;;;;;;;;;;;21.47;20.88;98485.69;4939414;29;992;-74
2024/02/02 10:45:40;;;;;;;;;;;;;;;21.25;21.31;98486.03;4937960;29;1596;-74
2024/02/02 10:48:24;;;;;;;;;;;;;;;21.28;21.09;98485.16;4899484;29;1125;-74
2024/02/02 10:51:00;;;;;;;;;;;;;;;21.30;21.07;98484.78;4961519;28;1009;-74
2024/02/02 10:53:46;;;;;;;;;;;;;;;21.37;21.13;98481.03;5025515;28;1906;-74
2024/02/02 10:56:30;;;;;;;;;;;;;;;21.32;21.15;98485.94;5054102;28;1418;-74
2024/02/02 10:59:14;;;;;;;;;;;;;;;21.28;21.37;98490.81;5058412;28;1211;-75
2024/02/02 11:01:53;;;;;;;;;;;;;;;21.43;20.95;98491.41;5058650;28;964;-74
2024/02/02 11:04:19;;;;;;;;;;;;;;;21.15;21.47;98492.69;5057253;28;974;-74
2024/02/02 11:07:04;;;;;;;;;;;;;;;21.30;21.39;98491.25;5058407;28;938;-74
2024/02/02 11:09:30;;;;;;;;;;;;;;;21.44;21.20;98492.22;4961132;28;1290;-74
2024/02/02 11:11:59;;;;;;;;;;;;;;;21.46;20.86;98496.22;4959667;28;1337;-74
2024/02/02 11:14:41;;;;;;;;;;;;;;;21.37;21.13;98492.34;4941951;29;1906;-75
2024/02/02 11:17:13;;;;;;;;;;;;;;;21.61;20.71;98502.41;4958045;29;1005;-74
2024/02/02 11:19:51;;;;;;;;;;;;;;;21.59;20.96;98507.69;4957306;29;1390;-74
2024/02/02 11:22:43;;;;;;;;;;;;;;;21.79;20.57;98505.69;4958304;29;964;-75
2024/02/02 11:25:11;;;;;;;;;;;;;;;21.38;21.04;98499.59;4918033;29;1356;-74
2024/02/02 11:27:57;;;;;;;;;;;;;;;21.10;21.48;98509.34;4900644;29;2056;-74
2024/02/02 11:30:30;;;;;;;;;;;;;;;20.70;21.73;98501.47;4900456;29;1013;-74
2024/02/02 11:33:19;;;;;;;;;;;;;;;21.26;21.24;98515.16;4863337;29;1027;-74
2024/02/02 11:35:51;;;;;;;;;;;;;;;21.38;21.29;98513.75;4826269;29;992;-74
2024/02/02 11:38:46;;;;;;;;;;;;;;;21.22;21.36;98508.75;4826694;29;1122;-74
2024/02/02 11:41:14;;;;;;;;;;;;;;;21.26;21.35;98510.28;4771408;30;1003;-74
2024/02/02 11:43:40;;;;;;;;;;;;;;;21.53;21.14;98512.25;4772560;30;1786;-74
2024/02/02 11:46:05;;;;;;;;;;;;;;;21.58;21.21;98503.28;4741821;30;1429;-75
2024/02/02 11:48:31;;;;;;;;;;;;;;;21.42;21.25;98508.84;4769338;30;917;-74
2024/02/02 11:50:56;;;;;;;;;;;;;;;21.50;21.09;98499.78;4754647;30;1003;-74
2024/02/02 11:53:24;;;;;;;;;;;;;;;21.29;21.53;98497.28;4769290;30;1908;-74
2024/02/02 11:55:51;;;;;;;;;;;;;;;21.05;21.54;98504.97;4785914;29;1398;-74
2024/02/02 11:58:17;;;;;;;;;;;;;;;21.04;21.42;98497.72;4780729;30;1234;-74
2024/02/02 12:00:58;;;;;;;;;;;;;;;21.38;21.02;98499.59;4753795;30;1441;-74
2024/02/02 12:03:33;;;;;;;;;;;;;;;21.48;21.31;98498.59;4830611;29;985;-74
2024/02/02 12:06:06;;;;;;;;;;;;;;;21.66;21.04;98499.09;4847713;29;917;-75
2024/02/02 12:08:36;;;;;;;;;;;;;;;21.50;20.98;98490.47;4863242;29;1070;-75
2024/02/02 12:11:01;;;;;;;;;;;;;;;21.61;20.77;98496.75;4862675;29;992;-75
2024/02/02 12:13:27;;;;;;;;;;;;;;;21.40;21.48;98502.78;4910379;29;1906;-74
2024/02/02 12:15:55;;;;;;;;;;;;;;;21.10;21.61;98490.34;4936492;28;1563;-75
2024/02/02 12:18:20;;;;;;;;;;;;;;;21.30;21.43;98482.75;4992341;28;1573;-75
2024/02/02 12:20:46;;;;;;;;;;;;;;;21.56;20.95;98500.09;5037479;28;931;-74
2024/02/02 12:23:11;;;;;;;;;;;;;;;21.45;21.28;98493.78;5037283;28;881;-74
2024/02/02 12:25:37;;;;;;;;;;;;;;;21.51;20.97;98497.75;5019808;28;924;-74
2024/02/02 12:28:04;;;;;;;;;;;;;;;21.52;21.09;98499.34;5036913;28;1016;-74
2024/02/02 12:30:29;;;;;;;;;;;;;;;21.49;21.28;98494.53;5035571;28;936;-74
2024/02/02 12:32:56;;;;;;;;;;;;;;;21.42;21.13;98489.00;5038474;28;1522;-74
2024/02/02 12:35:22;;;;;;;;;;;;;;;21.52;21.13;98490.84;5038264;28;1906;-74
2024/02/02 12:37:48;;;;;;;;;;;;;;;21.54;21.21;98486.34;5039081;28;976;-74
2024/02/02 12:40:14;;;;;;;;;;;;;;;21.39;21.15;98489.88;5038961;28;919;-74
2024/02/02 12:42:40;;;;;;;;;;;;;;;21.22;21.37;98498.22;5056655;28;989;-74
2024/02/02 12:45:08;;;;;;;;;;;;;;;21.23;21.46;98496.19;5056763;28;943;-75
2024/02/02 12:47:37;;;;;;;;;;;;;;;21.23;21.38;98504.69;5039090;28;984;-74
2024/02/02 12:50:03;;;;;;;;;;;;;;;21.44;21.25;98500.69;5038406;28;1581;-74
2024/02/02 12:52:29;;;;;;;;;;;;;;;21.60;21.21;98512.13;5039269;28;904;-74
2024/02/02 12:54:54;;;;;;;;;;;;;;;21.37;21.51;98510.13;5022235;28;1973;-74
2024/02/02 12:57:20;;;;;;;;;;;;;;;21.61;21.22;98505.25;5038419;28;1010;-74
2024/02/02 12:59:45;;;;;;;;;;;;;;;21.67;20.94;98503.50;5022004;28;957;-74
2024/02/02 13:02:13;;;;;;;;;;;;;;;21.34;21.54;98505.31;5022135;28;1101;-74